sensor_id;sensor_type;location;lat;lon;timestamp;temperature;humidity
20380;DHT22;10349;48.666;8.948;2022-08-27T00:00:11;17.60;99.90
20380;DHT22;10349;48.666;8.948;2022-08-27T00:02:39;17.60;99.90
20380;DHT22;10349;48.666;8.948;2022-08-27T00:05:04;17.60;99.90
20380;DHT22;10349;48.666;8.948;2022-08-27T00:07:31;17.70;99.90
20380;DHT22;10349;48.666;8.948;2022-08-27T00:09:56;17.70;99.90
20380;DHT22;10349;48.666;8.948;2022-08-27T00:12:22;17.80;99.90
20380;DHT22;10349;48.666;8.948;2022-08-27T00:14:48;17.80;99.90
20380;DHT22;10349;48.666;8.948;2022-08-27T00:17:14;17.80;99.90
20380;DHT22;10349;48.666;8.948;2022-08-27T00:19:40;17.80;99.90
20380;DHT22;10349;48.666;8.948;2022-08-27T00:22:07;17.90;99.90
20380;DHT22;10349;48.666;8.948;2022-08-27T00:24:34;17.80;99.90
20380;DHT22;10349;48.666;8.948;2022-08-27T00:27:00;17.80;99.90
20380;DHT22;10349;48.666;8.948;2022-08-27T00:29:26;17.80;99.90
20380;DHT22;10349;48.666;8.948;2022-08-27T00:31:52;17.80;99.90
20380;DHT22;10349;48.666;8.948;2022-08-27T00:34:19;17.80;99.90
20380;DHT22;10349;48.666;8.948;2022-08-27T00:36:44;17.80;99.90
20380;DHT22;10349;48.666;8.948;2022-08-27T00:39:11;17.80;99.90
20380;DHT22;10349;48.666;8.948;2022-08-27T00:41:38;17.80;99.90
20380;DHT22;10349;48.666;8.948;2022-08-27T00:44:05;17.80;99.90
20380;DHT22;10349;48.666;8.948;2022-08-27T00:46:50;17.80;99.90
20380;DHT22;10349;48.666;8.948;2022-08-27T00:52:06;17.70;99.90
20380;DHT22;10349;48.666;8.948;2022-08-27T00:54:32;17.70;99.90
20380;DHT22;10349;48.666;8.948;2022-08-27T00:56:59;17.80;99.90
20380;DHT22;10349;48.666;8.948;2022-08-27T00:59:27;17.80;99.90
20380;DHT22;10349;48.666;8.948;2022-08-27T01:01:58;17.80;99.90
20380;DHT22;10349;48.666;8.948;2022-08-27T01:04:45;17.80;99.90
20380;DHT22;10349;48.666;8.948;2022-08-27T01:07:12;17.80;99.90
20380;DHT22;10349;48.666;8.948;2022-08-27T01:09:40;17.90;99.90
20380;DHT22;10349;48.666;8.948;2022-08-27T01:12:07;17.90;99.90
20380;DHT22;10349;48.666;8.948;2022-08-27T01:14:34;17.80;99.90
20380;DHT22;10349;48.666;8.948;2022-08-27T01:17:01;17.80;99.90
20380;DHT22;10349;48.666;8.948;2022-08-27T01:19:29;17.80;99.90
20380;DHT22;10349;48.666;8.948;2022-08-27T01:24:42;17.80;99.90
20380;DHT22;10349;48.666;8.948;2022-08-27T01:27:11;17.70;99.90
20380;DHT22;10349;48.666;8.948;2022-08-27T01:29:38;17.70;99.90
20380;DHT22;10349;48.666;8.948;2022-08-27T01:32:09;17.70;99.90
20380;DHT22;10349;48.666;8.948;2022-08-27T01:34:36;17.70;99.90
20380;DHT22;10349;48.666;8.948;2022-08-27T01:37:02;17.60;99.90
20380;DHT22;10349;48.666;8.948;2022-08-27T01:39:30;17.60;99.90
20380;DHT22;10349;48.666;8.948;2022-08-27T01:42:05;17.50;99.90
20380;DHT22;10349;48.666;8.948;2022-08-27T01:44:48;17.50;99.90
20380;DHT22;10349;48.666;8.948;2022-08-27T01:47:16;17.50;99.90
20380;DHT22;10349;48.666;8.948;2022-08-27T01:49:42;17.50;99.90
20380;DHT22;10349;48.666;8.948;2022-08-27T01:52:07;17.60;99.90
20380;DHT22;10349;48.666;8.948;2022-08-27T01:54:33;17.60;99.90
20380;DHT22;10349;48.666;8.948;2022-08-27T01:56:59;17.60;99.90
20380;DHT22;10349;48.666;8.948;2022-08-27T01:59:25;17.60;99.90
20380;DHT22;10349;48.666;8.948;2022-08-27T02:01:53;17.70;99.90
20380;DHT22;10349;48.666;8.948;2022-08-27T02:04:19;17.70;99.90
20380;DHT22;10349;48.666;8.948;2022-08-27T02:06:44;17.70;99.90
20380;DHT22;10349;48.666;8.948;2022-08-27T02:09:11;17.70;99.90
20380;DHT22;10349;48.666;8.948;2022-08-27T02:11:37;17.80;99.90
20380;DHT22;10349;48.666;8.948;2022-08-27T02:14:02;17.80;99.90
20380;DHT22;10349;48.666;8.948;2022-08-27T02:16:29;17.80;99.90
20380;DHT22;10349;48.666;8.948;2022-08-27T02:18:56;17.90;99.90
20380;DHT22;10349;48.666;8.948;2022-08-27T02:21:21;17.90;99.90
20380;DHT22;10349;48.666;8.948;2022-08-27T02:23:47;17.80;99.90
20380;DHT22;10349;48.666;8.948;2022-08-27T02:26:13;17.80;99.90
20380;DHT22;10349;48.666;8.948;2022-08-27T02:28:38;17.80;99.90
20380;DHT22;10349;48.666;8.948;2022-08-27T02:31:04;17.80;99.90
20380;DHT22;10349;48.666;8.948;2022-08-27T02:33:32;17.80;99.90
20380;DHT22;10349;48.666;8.948;2022-08-27T02:35:58;17.80;99.90
20380;DHT22;10349;48.666;8.948;2022-08-27T02:38:23;17.80;99.90
20380;DHT22;10349;48.666;8.948;2022-08-27T02:40:49;17.80;99.90
20380;DHT22;10349;48.666;8.948;2022-08-27T02:43:15;17.90;99.90
20380;DHT22;10349;48.666;8.948;2022-08-27T02:45:40;17.90;99.90
20380;DHT22;10349;48.666;8.948;2022-08-27T02:48:07;17.90;99.90
20380;DHT22;10349;48.666;8.948;2022-08-27T02:50:33;17.80;99.90
20380;DHT22;10349;48.666;8.948;2022-08-27T02:53:00;17.70;99.90
20380;DHT22;10349;48.666;8.948;2022-08-27T02:55:27;17.60;99.90
20380;DHT22;10349;48.666;8.948;2022-08-27T02:57:54;17.60;99.90
20380;DHT22;10349;48.666;8.948;2022-08-27T03:00:22;17.60;99.90
20380;DHT22;10349;48.666;8.948;2022-08-27T03:02:48;17.60;99.90
20380;DHT22;10349;48.666;8.948;2022-08-27T03:05:15;17.60;99.90
20380;DHT22;10349;48.666;8.948;2022-08-27T03:07:41;17.60;99.90
20380;DHT22;10349;48.666;8.948;2022-08-27T03:10:09;17.60;99.90
20380;DHT22;10349;48.666;8.948;2022-08-27T03:12:35;17.60;99.90
20380;DHT22;10349;48.666;8.948;2022-08-27T03:15:06;17.50;99.90
20380;DHT22;10349;48.666;8.948;2022-08-27T03:17:32;17.60;99.90
20380;DHT22;10349;48.666;8.948;2022-08-27T03:20:17;17.60;99.90
20380;DHT22;10349;48.666;8.948;2022-08-27T03:22:43;17.60;99.90
20380;DHT22;10349;48.666;8.948;2022-08-27T03:25:10;17.60;99.90
20380;DHT22;10349;48.666;8.948;2022-08-27T03:27:36;17.60;99.90
20380;DHT22;10349;48.666;8.948;2022-08-27T03:30:04;17.60;99.90
20380;DHT22;10349;48.666;8.948;2022-08-27T03:32:30;17.50;99.90
20380;DHT22;10349;48.666;8.948;2022-08-27T03:34:57;17.50;99.90
20380;DHT22;10349;48.666;8.948;2022-08-27T03:37:23;17.50;99.90
20380;DHT22;10349;48.666;8.948;2022-08-27T03:39:49;17.40;99.90
20380;DHT22;10349;48.666;8.948;2022-08-27T03:42:15;17.40;99.90
20380;DHT22;10349;48.666;8.948;2022-08-27T03:44:40;17.30;99.90
20380;DHT22;10349;48.666;8.948;2022-08-27T03:47:06;17.30;99.90
20380;DHT22;10349;48.666;8.948;2022-08-27T03:49:32;17.30;99.90
20380;DHT22;10349;48.666;8.948;2022-08-27T03:51:57;17.30;99.90
20380;DHT22;10349;48.666;8.948;2022-08-27T03:54:23;17.40;99.90
20380;DHT22;10349;48.666;8.948;2022-08-27T03:56:50;17.40;99.90
20380;DHT22;10349;48.666;8.948;2022-08-27T03:59:16;17.40;99.90
20380;DHT22;10349;48.666;8.948;2022-08-27T04:01:42;17.50;99.90
20380;DHT22;10349;48.666;8.948;2022-08-27T04:04:08;17.40;99.90
20380;DHT22;10349;48.666;8.948;2022-08-27T04:06:34;17.40;99.90
20380;DHT22;10349;48.666;8.948;2022-08-27T04:09:00;17.40;99.90
20380;DHT22;10349;48.666;8.948;2022-08-27T04:11:26;17.50;99.90
20380;DHT22;10349;48.666;8.948;2022-08-27T04:13:54;17.50;99.90
20380;DHT22;10349;48.666;8.948;2022-08-27T04:16:20;17.40;99.90
20380;DHT22;10349;48.666;8.948;2022-08-27T04:18:46;17.40;99.90
20380;DHT22;10349;48.666;8.948;2022-08-27T04:21:13;17.40;99.90
20380;DHT22;10349;48.666;8.948;2022-08-27T04:23:40;17.40;99.90
20380;DHT22;10349;48.666;8.948;2022-08-27T04:26:07;17.40;99.90
20380;DHT22;10349;48.666;8.948;2022-08-27T04:28:34;17.40;99.90
20380;DHT22;10349;48.666;8.948;2022-08-27T04:31:01;17.40;99.90
20380;DHT22;10349;48.666;8.948;2022-08-27T04:33:27;17.40;99.90
20380;DHT22;10349;48.666;8.948;2022-08-27T04:35:57;17.50;99.90
20380;DHT22;10349;48.666;8.948;2022-08-27T04:38:23;17.40;99.90
20380;DHT22;10349;48.666;8.948;2022-08-27T04:40:49;17.50;99.90
20380;DHT22;10349;48.666;8.948;2022-08-27T04:43:33;17.50;99.90
20380;DHT22;10349;48.666;8.948;2022-08-27T04:45:59;17.50;99.90
20380;DHT22;10349;48.666;8.948;2022-08-27T04:48:24;17.60;99.90
20380;DHT22;10349;48.666;8.948;2022-08-27T04:50:50;17.60;99.90
20380;DHT22;10349;48.666;8.948;2022-08-27T04:53:16;17.60;99.90
20380;DHT22;10349;48.666;8.948;2022-08-27T04:55:48;17.50;99.90
20380;DHT22;10349;48.666;8.948;2022-08-27T04:58:16;17.50;99.90
20380;DHT22;10349;48.666;8.948;2022-08-27T05:00:43;17.50;99.90
20380;DHT22;10349;48.666;8.948;2022-08-27T05:03:10;17.40;99.90
20380;DHT22;10349;48.666;8.948;2022-08-27T05:05:35;17.40;99.90
20380;DHT22;10349;48.666;8.948;2022-08-27T05:08:02;17.40;99.90
20380;DHT22;10349;48.666;8.948;2022-08-27T05:10:28;17.40;99.90
20380;DHT22;10349;48.666;8.948;2022-08-27T05:12:54;17.30;99.90
20380;DHT22;10349;48.666;8.948;2022-08-27T05:15:19;17.40;99.90
20380;DHT22;10349;48.666;8.948;2022-08-27T05:17:46;17.40;99.90
20380;DHT22;10349;48.666;8.948;2022-08-27T05:20:11;17.40;99.90
20380;DHT22;10349;48.666;8.948;2022-08-27T05:22:37;17.50;99.90
20380;DHT22;10349;48.666;8.948;2022-08-27T05:25:04;17.50;99.90
20380;DHT22;10349;48.666;8.948;2022-08-27T05:27:30;17.50;99.90
20380;DHT22;10349;48.666;8.948;2022-08-27T05:29:56;17.60;99.90
20380;DHT22;10349;48.666;8.948;2022-08-27T05:32:22;17.60;99.90
20380;DHT22;10349;48.666;8.948;2022-08-27T05:34:48;17.60;99.90
20380;DHT22;10349;48.666;8.948;2022-08-27T05:37:13;17.70;99.90
20380;DHT22;10349;48.666;8.948;2022-08-27T05:39:39;17.70;99.90
20380;DHT22;10349;48.666;8.948;2022-08-27T05:42:05;17.70;99.90
20380;DHT22;10349;48.666;8.948;2022-08-27T05:44:30;17.70;99.90
20380;DHT22;10349;48.666;8.948;2022-08-27T05:46:56;17.80;99.90
20380;DHT22;10349;48.666;8.948;2022-08-27T05:49:21;17.90;99.90
20380;DHT22;10349;48.666;8.948;2022-08-27T05:51:47;17.90;99.90
20380;DHT22;10349;48.666;8.948;2022-08-27T05:54:13;17.90;99.90
20380;DHT22;10349;48.666;8.948;2022-08-27T05:56:44;17.90;99.90
20380;DHT22;10349;48.666;8.948;2022-08-27T05:59:10;18.00;99.90
20380;DHT22;10349;48.666;8.948;2022-08-27T06:01:55;18.00;99.90
20380;DHT22;10349;48.666;8.948;2022-08-27T06:04:23;18.00;99.90
20380;DHT22;10349;48.666;8.948;2022-08-27T06:06:50;18.00;99.90
20380;DHT22;10349;48.666;8.948;2022-08-27T06:09:22;18.00;99.90
20380;DHT22;10349;48.666;8.948;2022-08-27T06:11:48;18.10;99.90
20380;DHT22;10349;48.666;8.948;2022-08-27T06:14:14;18.10;99.90
20380;DHT22;10349;48.666;8.948;2022-08-27T06:16:40;18.10;99.90
20380;DHT22;10349;48.666;8.948;2022-08-27T06:19:07;18.10;99.90
20380;DHT22;10349;48.666;8.948;2022-08-27T06:21:33;18.20;99.90
20380;DHT22;10349;48.666;8.948;2022-08-27T06:23:59;18.20;99.90
20380;DHT22;10349;48.666;8.948;2022-08-27T06:26:26;18.20;99.90
20380;DHT22;10349;48.666;8.948;2022-08-27T06:28:51;18.20;99.90
20380;DHT22;10349;48.666;8.948;2022-08-27T06:31:20;18.20;99.90
20380;DHT22;10349;48.666;8.948;2022-08-27T06:33:47;18.30;99.90
20380;DHT22;10349;48.666;8.948;2022-08-27T06:36:18;18.30;99.90
20380;DHT22;10349;48.666;8.948;2022-08-27T06:38:44;18.30;99.90
20380;DHT22;10349;48.666;8.948;2022-08-27T06:41:12;18.40;99.90
20380;DHT22;10349;48.666;8.948;2022-08-27T06:43:39;18.50;99.90
20380;DHT22;10349;48.666;8.948;2022-08-27T06:46:07;18.50;99.90
20380;DHT22;10349;48.666;8.948;2022-08-27T06:48:34;18.60;99.90
20380;DHT22;10349;48.666;8.948;2022-08-27T06:51:07;18.60;99.90
20380;DHT22;10349;48.666;8.948;2022-08-27T06:53:33;18.60;99.90
20380;DHT22;10349;48.666;8.948;2022-08-27T06:55:59;18.60;99.90
20380;DHT22;10349;48.666;8.948;2022-08-27T06:58:25;18.60;99.90
20380;DHT22;10349;48.666;8.948;2022-08-27T07:00:51;18.70;99.90
20380;DHT22;10349;48.666;8.948;2022-08-27T07:03:16;18.70;99.90
20380;DHT22;10349;48.666;8.948;2022-08-27T07:05:42;18.70;99.90
20380;DHT22;10349;48.666;8.948;2022-08-27T07:08:08;18.70;99.90
20380;DHT22;10349;48.666;8.948;2022-08-27T07:10:35;18.70;99.90
20380;DHT22;10349;48.666;8.948;2022-08-27T07:13:02;18.70;99.90
20380;DHT22;10349;48.666;8.948;2022-08-27T07:15:28;18.70;99.90
20380;DHT22;10349;48.666;8.948;2022-08-27T07:17:53;18.70;99.90
20380;DHT22;10349;48.666;8.948;2022-08-27T07:20:19;18.70;99.90
20380;DHT22;10349;48.666;8.948;2022-08-27T07:22:46;18.70;99.90
20380;DHT22;10349;48.666;8.948;2022-08-27T07:25:14;18.80;99.90
20380;DHT22;10349;48.666;8.948;2022-08-27T07:27:43;18.80;99.90
20380;DHT22;10349;48.666;8.948;2022-08-27T07:30:11;18.80;99.90
20380;DHT22;10349;48.666;8.948;2022-08-27T07:32:38;18.90;99.90
20380;DHT22;10349;48.666;8.948;2022-08-27T07:35:04;18.90;99.90
20380;DHT22;10349;48.666;8.948;2022-08-27T07:37:34;18.90;99.90
20380;DHT22;10349;48.666;8.948;2022-08-27T07:40:01;18.90;99.90
20380;DHT22;10349;48.666;8.948;2022-08-27T07:42:28;18.90;99.90
20380;DHT22;10349;48.666;8.948;2022-08-27T07:45:12;18.90;99.90
20380;DHT22;10349;48.666;8.948;2022-08-27T07:47:38;18.90;99.90
20380;DHT22;10349;48.666;8.948;2022-08-27T07:50:04;19.00;99.90
20380;DHT22;10349;48.666;8.948;2022-08-27T07:52:30;19.10;99.90
20380;DHT22;10349;48.666;8.948;2022-08-27T07:54:56;19.10;99.90
20380;DHT22;10349;48.666;8.948;2022-08-27T07:57:21;19.20;99.90
20380;DHT22;10349;48.666;8.948;2022-08-27T07:59:47;19.20;99.90
20380;DHT22;10349;48.666;8.948;2022-08-27T08:02:13;19.30;99.90
20380;DHT22;10349;48.666;8.948;2022-08-27T08:04:39;19.40;99.90
20380;DHT22;10349;48.666;8.948;2022-08-27T08:07:05;19.50;99.90
20380;DHT22;10349;48.666;8.948;2022-08-27T08:09:31;19.50;99.90
20380;DHT22;10349;48.666;8.948;2022-08-27T08:11:57;19.60;99.90
20380;DHT22;10349;48.666;8.948;2022-08-27T08:14:23;19.70;99.90
20380;DHT22;10349;48.666;8.948;2022-08-27T08:16:49;19.70;99.90
20380;DHT22;10349;48.666;8.948;2022-08-27T08:19:14;19.80;99.90
20380;DHT22;10349;48.666;8.948;2022-08-27T08:21:40;19.70;99.90
20380;DHT22;10349;48.666;8.948;2022-08-27T08:24:07;19.80;99.90
20380;DHT22;10349;48.666;8.948;2022-08-27T08:26:32;19.70;99.90
20380;DHT22;10349;48.666;8.948;2022-08-27T08:28:58;19.60;99.90
20380;DHT22;10349;48.666;8.948;2022-08-27T08:31:25;19.70;99.90
20380;DHT22;10349;48.666;8.948;2022-08-27T08:33:51;19.60;99.90
20380;DHT22;10349;48.666;8.948;2022-08-27T08:36:18;19.60;99.90
20380;DHT22;10349;48.666;8.948;2022-08-27T08:38:44;19.60;99.90
20380;DHT22;10349;48.666;8.948;2022-08-27T08:41:42;19.60;99.90
20380;DHT22;10349;48.666;8.948;2022-08-27T08:44:31;19.60;99.90
20380;DHT22;10349;48.666;8.948;2022-08-27T08:47:11;19.60;99.90
20380;DHT22;10349;48.666;8.948;2022-08-27T08:50:05;19.60;99.90
20380;DHT22;10349;48.666;8.948;2022-08-27T08:52:55;19.60;99.90
20380;DHT22;10349;48.666;8.948;2022-08-27T08:55:50;19.50;99.90
20380;DHT22;10349;48.666;8.948;2022-08-27T09:01:08;19.30;99.90
20380;DHT22;10349;48.666;8.948;2022-08-27T09:03:37;19.30;99.90
20380;DHT22;10349;48.666;8.948;2022-08-27T09:06:08;19.30;99.90
20380;DHT22;10349;48.666;8.948;2022-08-27T09:08:40;19.30;99.90
20380;DHT22;10349;48.666;8.948;2022-08-27T09:11:34;19.30;99.90
20380;DHT22;10349;48.666;8.948;2022-08-27T09:16:53;19.40;99.90
20380;DHT22;10349;48.666;8.948;2022-08-27T09:19:18;19.40;99.90
20380;DHT22;10349;48.666;8.948;2022-08-27T09:24:49;19.60;99.90
20380;DHT22;10349;48.666;8.948;2022-08-27T09:27:19;19.60;99.90
20380;DHT22;10349;48.666;8.948;2022-08-27T09:29:49;19.50;99.90
20380;DHT22;10349;48.666;8.948;2022-08-27T09:32:20;19.60;99.90
20380;DHT22;10349;48.666;8.948;2022-08-27T09:34:46;19.70;99.90
20380;DHT22;10349;48.666;8.948;2022-08-27T09:37:33;19.70;99.90
20380;DHT22;10349;48.666;8.948;2022-08-27T09:40:16;19.60;99.90
20380;DHT22;10349;48.666;8.948;2022-08-27T09:42:52;19.60;99.90
20380;DHT22;10349;48.666;8.948;2022-08-27T09:45:29;19.50;99.90
20380;DHT22;10349;48.666;8.948;2022-08-27T09:50:37;19.50;99.90
20380;DHT22;10349;48.666;8.948;2022-08-27T09:53:24;19.50;99.90
20380;DHT22;10349;48.666;8.948;2022-08-27T09:56:02;19.50;99.90
20380;DHT22;10349;48.666;8.948;2022-08-27T10:01:27;19.60;99.90
20380;DHT22;10349;48.666;8.948;2022-08-27T10:04:10;19.50;99.90
20380;DHT22;10349;48.666;8.948;2022-08-27T10:06:43;19.40;99.90
20380;DHT22;10349;48.666;8.948;2022-08-27T10:09:22;19.40;99.90
20380;DHT22;10349;48.666;8.948;2022-08-27T10:12:42;19.40;99.90
20380;DHT22;10349;48.666;8.948;2022-08-27T10:15:14;19.40;99.90
20380;DHT22;10349;48.666;8.948;2022-08-27T10:21:19;19.40;99.90
20380;DHT22;10349;48.666;8.948;2022-08-27T10:40:42;19.50;99.90
20380;DHT22;10349;48.666;8.948;2022-08-27T10:45:50;19.50;99.90
20380;DHT22;10349;48.666;8.948;2022-08-27T10:51:33;19.50;99.90
20380;DHT22;10349;48.666;8.948;2022-08-27T10:54:09;19.60;99.90
20380;DHT22;10349;48.666;8.948;2022-08-27T11:04:59;19.70;99.90
20380;DHT22;10349;48.666;8.948;2022-08-27T11:07:39;19.70;99.90
20380;DHT22;10349;48.666;8.948;2022-08-27T11:10:29;19.70;99.90
20380;DHT22;10349;48.666;8.948;2022-08-27T11:13:11;19.70;99.90
20380;DHT22;10349;48.666;8.948;2022-08-27T11:15:43;19.60;99.90
20380;DHT22;10349;48.666;8.948;2022-08-27T11:18:36;19.50;99.90
20380;DHT22;10349;48.666;8.948;2022-08-27T11:21:13;19.60;99.90
20380;DHT22;10349;48.666;8.948;2022-08-27T11:23:59;19.60;99.90
20380;DHT22;10349;48.666;8.948;2022-08-27T11:26:31;19.70;99.90
20380;DHT22;10349;48.666;8.948;2022-08-27T11:29:21;19.70;99.90
20380;DHT22;10349;48.666;8.948;2022-08-27T11:32:29;19.70;99.90
20380;DHT22;10349;48.666;8.948;2022-08-27T11:35:12;19.80;99.90
20380;DHT22;10349;48.666;8.948;2022-08-27T11:43:40;19.90;99.90
20380;DHT22;10349;48.666;8.948;2022-08-27T11:46:24;20.00;99.90
20380;DHT22;10349;48.666;8.948;2022-08-27T11:48:59;20.10;99.90
20380;DHT22;10349;48.666;8.948;2022-08-27T11:51:32;20.00;99.90
20380;DHT22;10349;48.666;8.948;2022-08-27T11:56:52;20.10;99.90
20380;DHT22;10349;48.666;8.948;2022-08-27T12:01:57;20.30;99.90
20380;DHT22;10349;48.666;8.948;2022-08-27T12:04:37;20.40;99.90
20380;DHT22;10349;48.666;8.948;2022-08-27T12:07:28;20.50;99.90
20380;DHT22;10349;48.666;8.948;2022-08-27T12:10:17;20.60;99.90
20380;DHT22;10349;48.666;8.948;2022-08-27T12:18:37;20.60;99.90
20380;DHT22;10349;48.666;8.948;2022-08-27T12:26:59;20.60;99.90
20380;DHT22;10349;48.666;8.948;2022-08-27T12:32:25;20.60;99.90
20380;DHT22;10349;48.666;8.948;2022-08-27T12:38:14;20.40;99.90
20380;DHT22;10349;48.666;8.948;2022-08-27T12:40:54;20.40;99.90
20380;DHT22;10349;48.666;8.948;2022-08-27T12:43:30;20.50;99.90
20380;DHT22;10349;48.666;8.948;2022-08-27T12:48:35;20.50;99.90
20380;DHT22;10349;48.666;8.948;2022-08-27T12:51:07;20.60;99.90
20380;DHT22;10349;48.666;8.948;2022-08-27T12:53:42;20.50;99.90
20380;DHT22;10349;48.666;8.948;2022-08-27T12:56:23;20.50;99.90
20380;DHT22;10349;48.666;8.948;2022-08-27T13:03:57;20.50;99.90
20380;DHT22;10349;48.666;8.948;2022-08-27T13:06:34;20.50;99.90
20380;DHT22;10349;48.666;8.948;2022-08-27T13:09:07;20.70;99.90
20380;DHT22;10349;48.666;8.948;2022-08-27T13:11:44;20.70;99.90
20380;DHT22;10349;48.666;8.948;2022-08-27T13:14:14;20.70;99.90
20380;DHT22;10349;48.666;8.948;2022-08-27T13:16:48;20.60;99.90
20380;DHT22;10349;48.666;8.948;2022-08-27T13:19:30;20.60;99.90
20380;DHT22;10349;48.666;8.948;2022-08-27T13:22:06;20.60;99.90
20380;DHT22;10349;48.666;8.948;2022-08-27T13:24:43;20.50;99.90
20380;DHT22;10349;48.666;8.948;2022-08-27T13:27:10;20.50;99.90
20380;DHT22;10349;48.666;8.948;2022-08-27T13:29:37;20.50;99.90
20380;DHT22;10349;48.666;8.948;2022-08-27T13:32:04;20.50;99.90
20380;DHT22;10349;48.666;8.948;2022-08-27T13:34:37;20.60;99.90
20380;DHT22;10349;48.666;8.948;2022-08-27T13:37:25;20.60;99.90
20380;DHT22;10349;48.666;8.948;2022-08-27T13:39:55;20.60;99.90
20380;DHT22;10349;48.666;8.948;2022-08-27T13:42:22;20.70;99.90
20380;DHT22;10349;48.666;8.948;2022-08-27T13:44:59;20.60;99.90
20380;DHT22;10349;48.666;8.948;2022-08-27T13:47:27;20.70;99.90
20380;DHT22;10349;48.666;8.948;2022-08-27T13:50:11;20.70;99.90
20380;DHT22;10349;48.666;8.948;2022-08-27T13:52:40;20.60;99.90
20380;DHT22;10349;48.666;8.948;2022-08-27T13:55:28;20.70;99.90
20380;DHT22;10349;48.666;8.948;2022-08-27T13:58:12;20.60;99.90
20380;DHT22;10349;48.666;8.948;2022-08-27T14:00:40;20.60;99.90
20380;DHT22;10349;48.666;8.948;2022-08-27T14:03:30;20.60;99.90
20380;DHT22;10349;48.666;8.948;2022-08-27T14:05:57;20.70;99.90
20380;DHT22;10349;48.666;8.948;2022-08-27T14:08:33;20.60;99.90
20380;DHT22;10349;48.666;8.948;2022-08-27T14:11:11;20.50;99.90
20380;DHT22;10349;48.666;8.948;2022-08-27T14:13:43;20.40;99.90
20380;DHT22;10349;48.666;8.948;2022-08-27T14:16:26;20.40;99.90
20380;DHT22;10349;48.666;8.948;2022-08-27T14:21:38;20.50;99.90
20380;DHT22;10349;48.666;8.948;2022-08-27T14:24:17;20.50;99.90
20380;DHT22;10349;48.666;8.948;2022-08-27T14:27:00;20.60;99.90
20380;DHT22;10349;48.666;8.948;2022-08-27T14:29:29;20.60;99.90
20380;DHT22;10349;48.666;8.948;2022-08-27T14:31:54;20.50;99.90
20380;DHT22;10349;48.666;8.948;2022-08-27T14:34:29;20.60;99.90
20380;DHT22;10349;48.666;8.948;2022-08-27T14:36:55;20.60;99.90
20380;DHT22;10349;48.666;8.948;2022-08-27T14:39:21;20.60;99.90
20380;DHT22;10349;48.666;8.948;2022-08-27T14:41:46;20.70;99.90
20380;DHT22;10349;48.666;8.948;2022-08-27T14:44:15;20.60;99.90
20380;DHT22;10349;48.666;8.948;2022-08-27T14:46:46;20.60;99.90
20380;DHT22;10349;48.666;8.948;2022-08-27T14:49:28;20.60;99.90
20380;DHT22;10349;48.666;8.948;2022-08-27T14:51:55;20.60;99.90
20380;DHT22;10349;48.666;8.948;2022-08-27T14:54:21;20.60;99.90
20380;DHT22;10349;48.666;8.948;2022-08-27T14:56:50;20.60;99.90
20380;DHT22;10349;48.666;8.948;2022-08-27T14:59:21;20.70;99.90
20380;DHT22;10349;48.666;8.948;2022-08-27T15:01:47;20.70;99.90
20380;DHT22;10349;48.666;8.948;2022-08-27T15:04:18;20.60;99.90
20380;DHT22;10349;48.666;8.948;2022-08-27T15:06:47;20.60;99.90
20380;DHT22;10349;48.666;8.948;2022-08-27T15:09:13;20.60;99.90
20380;DHT22;10349;48.666;8.948;2022-08-27T15:11:44;20.60;99.90
20380;DHT22;10349;48.666;8.948;2022-08-27T15:14:32;20.60;99.90
20380;DHT22;10349;48.666;8.948;2022-08-27T15:16:59;20.60;99.90
20380;DHT22;10349;48.666;8.948;2022-08-27T15:19:28;20.50;99.90
20380;DHT22;10349;48.666;8.948;2022-08-27T15:21:59;20.50;99.90
20380;DHT22;10349;48.666;8.948;2022-08-27T15:24:37;20.40;99.90
20380;DHT22;10349;48.666;8.948;2022-08-27T15:27:15;20.30;99.90
20380;DHT22;10349;48.666;8.948;2022-08-27T15:29:44;20.30;99.90
20380;DHT22;10349;48.666;8.948;2022-08-27T15:32:37;20.20;99.90
20380;DHT22;10349;48.666;8.948;2022-08-27T15:35:11;20.20;99.90
20380;DHT22;10349;48.666;8.948;2022-08-27T15:37:41;20.10;99.90
20380;DHT22;10349;48.666;8.948;2022-08-27T15:40:14;20.20;99.90
20380;DHT22;10349;48.666;8.948;2022-08-27T15:42:41;20.10;99.90
20380;DHT22;10349;48.666;8.948;2022-08-27T15:45:13;20.20;99.90
20380;DHT22;10349;48.666;8.948;2022-08-27T15:47:46;20.20;99.90
20380;DHT22;10349;48.666;8.948;2022-08-27T15:50:12;20.30;99.90
20380;DHT22;10349;48.666;8.948;2022-08-27T15:52:38;20.40;99.90
20380;DHT22;10349;48.666;8.948;2022-08-27T15:55:21;20.40;99.90
20380;DHT22;10349;48.666;8.948;2022-08-27T15:57:48;20.40;99.90
20380;DHT22;10349;48.666;8.948;2022-08-27T16:00:17;20.40;99.90
20380;DHT22;10349;48.666;8.948;2022-08-27T16:02:52;20.40;99.90
20380;DHT22;10349;48.666;8.948;2022-08-27T16:05:25;20.40;99.90
20380;DHT22;10349;48.666;8.948;2022-08-27T16:08:12;20.40;99.90
20380;DHT22;10349;48.666;8.948;2022-08-27T16:10:41;20.40;99.90
20380;DHT22;10349;48.666;8.948;2022-08-27T16:13:07;20.40;99.90
20380;DHT22;10349;48.666;8.948;2022-08-27T16:15:37;20.40;99.90
20380;DHT22;10349;48.666;8.948;2022-08-27T16:18:05;20.40;99.90
20380;DHT22;10349;48.666;8.948;2022-08-27T16:20:36;20.50;99.90
20380;DHT22;10349;48.666;8.948;2022-08-27T16:23:02;20.50;99.90
20380;DHT22;10349;48.666;8.948;2022-08-27T16:25:30;20.50;99.90
20380;DHT22;10349;48.666;8.948;2022-08-27T16:27:58;20.50;99.90
20380;DHT22;10349;48.666;8.948;2022-08-27T16:30:33;20.50;99.90
20380;DHT22;10349;48.666;8.948;2022-08-27T16:33:05;20.60;99.90
20380;DHT22;10349;48.666;8.948;2022-08-27T16:35:31;20.60;99.90
20380;DHT22;10349;48.666;8.948;2022-08-27T16:37:59;20.60;99.90
20380;DHT22;10349;48.666;8.948;2022-08-27T16:40:27;20.70;99.90
20380;DHT22;10349;48.666;8.948;2022-08-27T16:42:57;20.70;99.90
20380;DHT22;10349;48.666;8.948;2022-08-27T16:45:29;20.70;99.90
20380;DHT22;10349;48.666;8.948;2022-08-27T16:48:06;20.70;99.90
20380;DHT22;10349;48.666;8.948;2022-08-27T16:50:53;20.80;99.90
20380;DHT22;10349;48.666;8.948;2022-08-27T16:53:20;20.70;99.90
20380;DHT22;10349;48.666;8.948;2022-08-27T16:55:51;20.80;99.90
20380;DHT22;10349;48.666;8.948;2022-08-27T16:58:23;20.90;99.90
20380;DHT22;10349;48.666;8.948;2022-08-27T17:00:56;20.80;99.90
20380;DHT22;10349;48.666;8.948;2022-08-27T17:03:23;20.70;99.90
20380;DHT22;10349;48.666;8.948;2022-08-27T17:05:55;20.60;99.90
20380;DHT22;10349;48.666;8.948;2022-08-27T17:08:24;20.60;99.90
20380;DHT22;10349;48.666;8.948;2022-08-27T17:10:53;20.60;99.90
20380;DHT22;10349;48.666;8.948;2022-08-27T17:13:23;20.60;99.90
20380;DHT22;10349;48.666;8.948;2022-08-27T17:16:01;20.60;99.90
20380;DHT22;10349;48.666;8.948;2022-08-27T17:18:32;20.50;99.90
20380;DHT22;10349;48.666;8.948;2022-08-27T17:21:02;20.50;99.90
20380;DHT22;10349;48.666;8.948;2022-08-27T17:23:39;20.50;99.90